MMZO/ZLO METAR and TAF weather

Enter ICAO airport designator
Station Type Date Time Source
MMZO METAR 2020/06/03 20:45 UTC NOAA

MMZO 032045Z 26020KT 8SM SCT210 27/24 A2973 RMK 8/004 HZY


Station Type Date Time Source
MMZO Decoded METAR 2020/06/03 20:45 UTC NOAA

Manzanillo International , Mexico (MMZO) 19-09N 104-34W
Jun 03, 2020 - 04:45 PM EDT / 2020.06.03 2045 UTC
Wind: from the W (260 degrees) at 23 MPH (20 KT):0
Visibility: 8 mile(s):0
Sky conditions: partly cloudy
Temperature: 80 F (27 C)
Dew Point: 75 F (24 C)
Relative Humidity: 83%
Pressure (altimeter): 29.73 in. Hg (1006 hPa)
ob: MMZO 032045Z 26020KT 8SM SCT210 27/24 A2973 RMK 8/004 HZY
cycle: 21

Station Type Date Time Source
MMZO TAF 2020/06/03 18:45 UTC NOAA

TAF MMZO 031638Z 0318/0418 00000KT P6SM BKN020
FM032000 24012KT P6SM SCT020
FM041200 00000KT 5SM HZ OVC015

Example: see airport list